Time;durP1;ratioP1;P1;durP2;ratioP2;P2;SDS_P1;SDS_P2;PMS_P1;PMS_P2;Temp;Humidity;BMP_temperature;BMP_pressure;BME280_temperature;BME280_humidity;BME280_pressure;Samples;Min_cycle;Max_cycle;Signal;HPM_P1;HPM_P2
2022/12/28 00:01:17;;;;;;;7.68;3.03;;;6.40;99.90;;;;;;5075011;28;20518;-82
2022/12/28 00:03:44;;;;;;;8.75;3.92;;;6.20;99.90;;;;;;5073381;28;20048;-81
2022/12/28 00:06:10;;;;;;;9.95;3.63;;;6.40;99.90;;;;;;5057322;28;20044;-81
2022/12/28 00:08:36;;;;;;;14.45;4.28;;;6.30;99.90;;;;;;5058292;28;20036;-81
2022/12/28 00:11:07;;;;;;;10.93;4.60;;;6.10;99.90;;;;;;5042410;28;20036;-81
2022/12/28 00:13:34;;;;;;;10.70;4.40;;;6.20;99.90;;;;;;5042456;28;20082;-81
2022/12/28 00:16:23;;;;;;;6.43;3.90;;;6.20;99.90;;;;;;5074697;28;20040;-82
2022/12/28 00:18:49;;;;;;;9.30;4.50;;;6.20;99.90;;;;;;5059002;28;20499;-81
2022/12/28 00:21:14;;;;;;;10.52;4.53;;;6.30;99.90;;;;;;5075058;28;20051;-81
2022/12/28 00:23:40;;;;;;;8.95;3.28;;;6.20;99.90;;;;;;5040069;28;20036;-82
2022/12/28 00:26:08;;;;;;;8.60;4.35;;;6.20;99.90;;;;;;5058528;28;20122;-82
2022/12/28 00:28:34;;;;;;;8.93;3.80;;;6.70;99.90;;;;;;5057978;28;20083;-81
2022/12/28 00:31:01;;;;;;;9.50;3.97;;;6.10;99.90;;;;;;5058481;28;20090;-81
2022/12/28 00:33:27;;;;;;;9.68;4.75;;;6.10;99.90;;;;;;5073941;28;20095;-81
2022/12/28 00:35:57;;;;;;;11.57;3.67;;;6.10;99.90;;;;;;5058620;28;20057;-81
2022/12/28 00:38:23;;;;;;;9.18;3.92;;;6.10;99.90;;;;;;5072630;28;20391;-81
2022/12/28 00:40:49;;;;;;;8.85;3.72;;;6.10;99.90;;;;;;5057069;28;20075;-82
2022/12/28 00:43:15;;;;;;;8.55;4.32;;;6.20;99.90;;;;;;5057625;28;20071;-82
2022/12/28 00:45:47;;;;;;;9.30;3.78;;;6.40;99.90;;;;;;5057544;28;20536;-82
2022/12/28 00:48:13;;;;;;;7.18;3.33;;;6.20;99.90;;;;;;5073472;28;20032;-81
2022/12/28 00:50:39;;;;;;;7.70;3.58;;;6.90;99.90;;;;;;5024914;28;20047;-82
2022/12/28 00:53:05;;;;;;;6.90;3.95;;;6.10;99.90;;;;;;5056206;28;20047;-82
2022/12/28 00:55:32;;;;;;;5.68;3.17;;;6.60;99.90;;;;;;5056798;28;20039;-81
2022/12/28 00:58:02;;;;;;;6.38;2.65;;;6.30;99.90;;;;;;5056884;28;20423;-80
2022/12/28 01:00:29;;;;;;;7.30;3.80;;;6.40;99.90;;;;;;5073239;28;20135;-81
2022/12/28 01:02:55;;;;;;;6.55;3.28;;;6.20;99.90;;;;;;5090104;28;20044;-81
2022/12/28 01:05:22;;;;;;;10.48;3.92;;;6.20;99.90;;;;;;5072639;28;20117;-81
2022/12/28 01:07:48;;;;;;;6.97;3.92;;;6.70;99.90;;;;;;5038948;28;20044;-81
2022/12/28 01:10:14;;;;;;;7.68;2.85;;;6.40;99.90;;;;;;5056644;28;20028;-82
2022/12/28 01:12:40;;;;;;;8.57;3.72;;;6.20;99.90;;;;;;5073529;28;20043;-82
2022/12/28 01:15:08;;;;;;;10.23;4.82;;;6.30;99.90;;;;;;5073803;28;20119;-82
2022/12/28 01:17:33;;;;;;;8.57;4.40;;;6.30;99.90;;;;;;5056696;28;20070;-81
2022/12/28 01:19:59;;;;;;;10.93;4.25;;;6.30;99.90;;;;;;5055963;28;20063;-81
2022/12/28 01:22:25;;;;;;;9.85;4.05;;;6.30;99.90;;;;;;5040610;28;20048;-81
2022/12/28 01:24:51;;;;;;;5.50;3.47;;;6.70;99.90;;;;;;5039156;28;20118;-81
2022/12/28 01:27:17;;;;;;;7.63;3.45;;;6.30;99.90;;;;;;5054415;28;20032;-80
2022/12/28 01:29:43;;;;;;;12.43;4.63;;;6.40;99.90;;;;;;5070236;28;20046;-80
2022/12/28 01:32:08;;;;;;;6.50;4.45;;;6.40;99.90;;;;;;5055333;28;20079;-81
2022/12/28 01:34:34;;;;;;;9.45;4.75;;;6.40;99.90;;;;;;5053661;28;20642;-82
2022/12/28 01:37:00;;;;;;;8.43;4.05;;;6.90;99.90;;;;;;5071461;28;20136;-81
2022/12/28 01:39:26;;;;;;;10.23;3.30;;;6.30;99.90;;;;;;5055610;28;20062;-82
2022/12/28 01:41:51;;;;;;;9.90;4.28;;;6.40;99.90;;;;;;5039961;28;20047;-82
2022/12/28 01:44:23;;;;;;;8.85;3.22;;;6.40;99.90;;;;;;5040643;28;20051;-82
2022/12/28 01:47:12;;;;;;;7.95;3.85;;;6.40;99.90;;;;;;5055292;28;20048;-81
2022/12/28 01:49:41;;;;;;;7.00;4.25;;;6.40;99.90;;;;;;5054869;28;20062;-80
2022/12/28 01:52:15;;;;;;;10.68;3.60;;;6.90;99.90;;;;;;5090380;28;20070;-82
2022/12/28 01:54:50;;;;;;;7.78;4.18;;;6.40;99.90;;;;;;5072608;28;20040;-82
2022/12/28 01:57:20;;;;;;;9.95;4.53;;;6.40;99.90;;;;;;5056600;28;20086;-80
2022/12/28 01:59:56;;;;;;;7.97;3.97;;;6.80;99.90;;;;;;5073003;28;20047;-81
2022/12/28 02:02:22;;;;;;;9.25;3.85;;;6.40;99.90;;;;;;5055417;28;20035;-81
2022/12/28 02:04:48;;;;;;;11.25;3.60;;;6.40;99.90;;;;;;5055835;28;20059;-82
2022/12/28 02:07:24;;;;;;;8.70;3.53;;;6.40;99.90;;;;;;5074706;28;20036;-82
2022/12/28 02:09:50;;;;;;;8.15;3.15;;;6.40;99.90;;;;;;5075264;28;20040;-82
2022/12/28 02:12:16;;;;;;;9.05;4.30;;;6.40;99.90;;;;;;5056112;28;20040;-82
2022/12/28 02:14:43;;;;;;;8.93;4.05;;;6.40;99.90;;;;;;5055281;28;20036;-82
2022/12/28 02:17:12;;;;;;;8.02;4.22;;;6.40;99.90;;;;;;5022309;28;20043;-81
2022/12/28 02:19:46;;;;;;;7.40;4.10;;;6.50;99.90;;;;;;5039077;28;20044;-82
2022/12/28 02:22:37;;;;;;;8.68;4.30;;;6.50;99.90;;;;;;5055926;28;20121;-82
2022/12/28 02:25:23;;;;;;;6.90;3.88;;;6.40;99.90;;;;;;5074510;28;20043;-80
2022/12/28 02:27:58;;;;;;;12.10;5.25;;;6.40;99.90;;;;;;5060022;28;20480;-81
2022/12/28 02:30:24;;;;;;;9.70;4.82;;;6.50;99.90;;;;;;5050785;28;20083;-81
2022/12/28 02:33:06;;;;;;;9.95;5.00;;;7.20;99.90;;;;;;5059049;28;20068;-81
2022/12/28 02:35:57;;;;;;;10.93;5.30;;;6.50;99.90;;;;;;5059341;28;20129;-82
2022/12/28 02:38:46;;;;;;;8.50;4.22;;;6.50;99.90;;;;;;5075412;28;20118;-82
2022/12/28 02:41:18;;;;;;;7.00;3.42;;;6.60;99.90;;;;;;5059922;28;20059;-82
2022/12/28 02:43:44;;;;;;;8.43;4.80;;;6.60;99.90;;;;;;5076415;28;20054;-81
2022/12/28 02:52:36;;;;;;;7.97;4.07;;;6.50;99.90;;;;;;5075389;28;20438;-81
2022/12/28 02:58:21;;;;;;;;;;;6.70;99.90;;;;;;5076832;28;20138;-82
2022/12/28 03:01:12;;;;;;;7.68;4.00;;;6.60;99.90;;;;;;5075246;28;19920;-81
2022/12/28 03:03:55;;;;;;;5.82;2.90;;;6.60;99.90;;;;;;5066069;28;20036;-80
2022/12/28 03:09:25;;;;;;;7.32;3.10;;;6.80;99.90;;;;;;5076995;28;20585;-82
2022/12/28 03:11:58;;;;;;;8.43;4.80;;;6.80;99.90;;;;;;5076199;28;20046;-82
2022/12/28 03:14:53;;;;;;;6.28;3.35;;;7.20;99.90;;;;;;5059269;28;20036;-82
2022/12/28 03:31:23;;;;;;;;;;;6.80;99.90;;;;;;5060050;28;20094;-82
2022/12/28 03:34:05;;;;;;;7.00;4.82;;;6.70;99.90;;;;;;5073779;28;19959;-81
2022/12/28 03:36:55;;;;;;;7.60;4.43;;;6.80;99.90;;;;;;5060645;28;20047;-82
2022/12/28 03:39:39;;;;;;;6.85;4.68;;;6.80;99.90;;;;;;5057745;28;20131;-81
2022/12/28 03:45:08;;;;;;;7.93;4.43;;;6.80;99.90;;;;;;5074289;28;20048;-80
2022/12/28 03:47:37;;;;;;;8.77;4.90;;;6.80;99.90;;;;;;5055738;28;20070;-82
2022/12/28 03:50:04;;;;;;;4.95;3.78;;;6.80;99.90;;;;;;5058002;28;20039;-82
2022/12/28 03:52:31;;;;;;;6.75;5.05;;;6.70;99.90;;;;;;5058239;28;20036;-82
2022/12/28 03:54:57;;;;;;;7.35;5.00;;;6.70;99.90;;;;;;5057957;28;20032;-81
2022/12/28 03:57:23;;;;;;;5.88;4.25;;;6.70;99.90;;;;;;5041745;28;20040;-82
2022/12/28 03:59:49;;;;;;;6.55;4.15;;;6.70;99.90;;;;;;5058212;28;20046;-82
2022/12/28 04:02:14;;;;;;;5.80;4.13;;;6.80;99.90;;;;;;5040265;28;20032;-82
2022/12/28 04:04:40;;;;;;;6.03;4.20;;;6.80;99.90;;;;;;5058252;28;20055;-81
2022/12/28 04:07:06;;;;;;;5.90;4.40;;;6.80;99.90;;;;;;5042349;28;20028;-82
2022/12/28 04:09:31;;;;;;;7.47;4.68;;;6.80;99.90;;;;;;5041280;28;20071;-82
2022/12/28 04:11:57;;;;;;;5.80;4.03;;;6.80;99.90;;;;;;5041672;28;20399;-83
2022/12/28 04:14:23;;;;;;;6.07;4.05;;;6.80;99.90;;;;;;5073874;28;20032;-83
2022/12/28 04:16:49;;;;;;;6.13;4.35;;;6.80;99.90;;;;;;5057475;28;20055;-83
2022/12/28 04:19:14;;;;;;;5.22;4.47;;;6.80;99.90;;;;;;5074167;28;20039;-82
2022/12/28 04:21:40;;;;;;;5.07;3.60;;;6.80;99.90;;;;;;5040922;28;20111;-83
2022/12/28 04:24:06;;;;;;;5.22;4.25;;;7.00;99.90;;;;;;5057349;28;20040;-82
2022/12/28 04:26:32;;;;;;;7.45;4.40;;;6.90;99.90;;;;;;5041744;28;20082;-81
2022/12/28 04:29:00;;;;;;;5.97;4.90;;;6.90;99.90;;;;;;5039831;28;20504;-82
2022/12/28 04:31:27;;;;;;;11.23;5.68;;;6.90;99.90;;;;;;5072561;28;20067;-82
2022/12/28 04:33:55;;;;;;;4.93;4.18;;;6.90;99.90;;;;;;5073312;28;20396;-82
2022/12/28 04:36:21;;;;;;;6.40;4.95;;;7.30;99.90;;;;;;5092062;28;20046;-82
2022/12/28 04:38:46;;;;;;;6.68;4.88;;;7.00;99.90;;;;;;5057127;28;20131;-82
2022/12/28 04:41:12;;;;;;;6.45;4.85;;;7.00;99.90;;;;;;5049997;28;20043;-83
2022/12/28 04:43:39;;;;;;;6.13;5.47;;;7.10;99.90;;;;;;5058333;28;20118;-83
2022/12/28 04:46:11;;;;;;;6.18;5.25;;;7.00;99.90;;;;;;5055969;28;20502;-81
2022/12/28 04:48:38;;;;;;;5.97;3.45;;;7.10;99.90;;;;;;5074141;28;20477;-80
2022/12/28 04:51:09;;;;;;;6.45;4.63;;;7.10;99.90;;;;;;5039869;28;20093;-81
2022/12/28 04:53:39;;;;;;;6.50;5.32;;;7.20;99.90;;;;;;5092174;28;20439;-81
2022/12/28 04:56:06;;;;;;;7.65;5.78;;;7.20;99.90;;;;;;5073378;28;20093;-81
2022/12/28 04:58:33;;;;;;;7.05;6.32;;;7.20;99.90;;;;;;5090088;28;20048;-82
2022/12/28 05:01:09;;;;;;;7.15;5.68;;;7.20;99.90;;;;;;5073947;28;20609;-82
2022/12/28 05:03:36;;;;;;;9.15;7.15;;;7.30;99.90;;;;;;5073554;28;20130;-81
2022/12/28 05:06:04;;;;;;;8.30;6.05;;;7.30;99.90;;;;;;5073112;28;20491;-82
2022/12/28 05:08:31;;;;;;;8.60;7.05;;;7.30;99.90;;;;;;5042519;28;20114;-82
2022/12/28 05:11:01;;;;;;;9.15;6.93;;;7.30;99.90;;;;;;5040889;28;20036;-81
2022/12/28 05:13:26;;;;;;;8.07;6.72;;;7.40;99.90;;;;;;5057640;28;20040;-81
2022/12/28 05:15:52;;;;;;;8.68;6.55;;;7.40;99.90;;;;;;5024878;28;20118;-82
2022/12/28 05:18:18;;;;;;;7.85;6.22;;;7.40;99.90;;;;;;5040418;28;20051;-81
2022/12/28 05:20:43;;;;;;;9.15;7.13;;;7.40;99.90;;;;;;5041422;28;20051;-82
2022/12/28 05:23:09;;;;;;;8.52;7.22;;;7.40;99.90;;;;;;5056701;28;20479;-81
2022/12/28 05:25:35;;;;;;;9.00;6.80;;;7.50;99.90;;;;;;5040583;28;20046;-82
2022/12/28 05:28:00;;;;;;;10.32;7.72;;;7.50;99.90;;;;;;5039529;28;20441;-82
2022/12/28 05:30:26;;;;;;;9.43;7.57;;;8.70;99.90;;;;;;5054964;28;20044;-82
2022/12/28 05:32:52;;;;;;;10.32;7.82;;;7.50;99.90;;;;;;5040719;28;20040;-82
2022/12/28 05:35:17;;;;;;;9.25;7.75;;;7.60;99.90;;;;;;5056097;28;20028;-82
2022/12/28 05:37:43;;;;;;;10.65;7.05;;;7.50;99.90;;;;;;5039701;28;20545;-82
2022/12/28 05:40:12;;;;;;;8.80;7.43;;;7.60;99.90;;;;;;5041101;28;20044;-81
2022/12/28 05:42:38;;;;;;;12.98;9.00;;;7.70;99.90;;;;;;5024238;28;20062;-82
2022/12/28 05:45:04;;;;;;;10.75;8.30;;;7.70;99.90;;;;;;5056544;28;20454;-82
2022/12/28 05:47:29;;;;;;;5.85;4.22;;;7.70;99.90;;;;;;5072647;28;20032;-81
2022/12/28 05:49:55;;;;;;;10.65;7.55;;;7.80;99.90;;;;;;5039358;28;20123;-81
2022/12/28 05:52:21;;;;;;;9.05;7.18;;;7.80;99.90;;;;;;5055102;28;20072;-82
2022/12/28 05:54:46;;;;;;;9.45;7.60;;;7.80;99.90;;;;;;5055598;28;20480;-82
2022/12/28 05:57:12;;;;;;;10.02;8.40;;;7.80;99.90;;;;;;5073272;28;20044;-82
2022/12/28 05:59:38;;;;;;;9.80;8.10;;;7.80;99.90;;;;;;5047284;28;20044;-82
2022/12/28 06:02:03;;;;;;;9.88;8.70;;;7.70;99.90;;;;;;5043581;28;20488;-82
2022/12/28 06:04:29;;;;;;;9.07;8.18;;;8.00;99.90;;;;;;5045680;28;20075;-82
2022/12/28 06:06:55;;;;;;;9.90;8.93;;;7.90;99.90;;;;;;5042591;28;20040;-82
2022/12/28 06:09:20;;;;;;;11.25;9.15;;;8.00;99.90;;;;;;5043427;28;20036;-82
2022/12/28 06:11:46;;;;;;;10.77;8.43;;;7.80;99.90;;;;;;5058790;28;20083;-82
2022/12/28 06:14:12;;;;;;;11.15;8.57;;;7.90;99.90;;;;;;5059226;28;20115;-82
2022/12/28 06:16:41;;;;;;;13.63;9.38;;;7.90;99.90;;;;;;5058766;28;20086;-82
2022/12/28 06:19:08;;;;;;;9.45;8.52;;;7.90;99.90;;;;;;5059953;28;20044;-82
2022/12/28 06:21:36;;;;;;;10.13;9.02;;;8.00;99.90;;;;;;5042544;28;20044;-83
2022/12/28 06:24:03;;;;;;;10.55;8.50;;;7.90;99.90;;;;;;5058666;28;20044;-83
2022/12/28 06:26:31;;;;;;;8.38;7.25;;;7.90;99.90;;;;;;5042335;28;20036;-83
2022/12/28 06:28:58;;;;;;;10.93;9.40;;;8.00;99.90;;;;;;5059275;28;20055;-83
2022/12/28 06:31:26;;;;;;;11.07;8.73;;;8.00;99.90;;;;;;5058796;28;20480;-83
2022/12/28 06:33:56;;;;;;;10.75;8.25;;;8.00;99.90;;;;;;5060495;28;20715;-83
2022/12/28 06:36:33;;;;;;;10.82;8.88;;;8.00;99.90;;;;;;5058391;28;20590;-83
2022/12/28 06:39:01;;;;;;;11.40;8.27;;;8.00;99.90;;;;;;5060082;28;20510;-83
2022/12/28 06:41:27;;;;;;;12.50;9.45;;;8.00;99.90;;;;;;5043244;28;20036;-82
2022/12/28 06:43:54;;;;;;;12.50;9.68;;;8.00;99.90;;;;;;5058643;28;20106;-84
2022/12/28 06:46:21;;;;;;;11.70;8.80;;;8.00;99.90;;;;;;5076273;28;20047;-83
2022/12/28 06:48:47;;;;;;;11.10;9.13;;;8.20;99.90;;;;;;5075286;28;20036;-83
2022/12/28 06:51:22;;;;;;;10.63;8.77;;;8.10;99.90;;;;;;5060047;28;20097;-83
2022/12/28 06:53:50;;;;;;;13.57;9.18;;;8.10;99.90;;;;;;5076917;28;20400;-83
2022/12/28 06:56:19;;;;;;;15.05;9.13;;;8.10;99.90;;;;;;5058685;28;20044;-83
2022/12/28 06:58:46;;;;;;;11.73;9.82;;;8.10;99.90;;;;;;5075603;28;20052;-83
2022/12/28 07:01:17;;;;;;;14.30;9.88;;;8.10;99.90;;;;;;5058795;28;20036;-83
2022/12/28 07:03:44;;;;;;;11.80;8.73;;;8.20;99.90;;;;;;5095135;28;20040;-83
2022/12/28 07:06:11;;;;;;;11.15;8.85;;;8.20;99.90;;;;;;5076522;28;20507;-83
2022/12/28 07:08:37;;;;;;;10.48;8.57;;;8.40;99.90;;;;;;5074945;28;20043;-81
2022/12/28 07:11:08;;;;;;;13.90;9.23;;;8.20;99.90;;;;;;5059040;28;20028;-82
2022/12/28 07:13:34;;;;;;;10.57;8.85;;;8.20;99.90;;;;;;5059673;28;20122;-83
2022/12/28 07:16:20;;;;;;;8.52;7.63;;;8.50;99.90;;;;;;5076280;28;20433;-82
2022/12/28 07:18:46;;;;;;;9.50;8.50;;;8.20;99.90;;;;;;5057591;28;20044;-82
2022/12/28 07:21:27;;;;;;;9.02;8.13;;;8.70;99.90;;;;;;5057785;28;20093;-81
2022/12/28 07:23:54;;;;;;;11.45;8.77;;;8.30;99.90;;;;;;5073795;28;20054;-81
2022/12/28 07:26:22;;;;;;;10.23;8.45;;;8.30;99.90;;;;;;5074577;28;20040;-81
2022/12/28 07:28:51;;;;;;;10.05;8.50;;;8.30;99.90;;;;;;5056738;28;20059;-80
2022/12/28 07:31:26;;;;;;;10.27;8.05;;;8.30;99.90;;;;;;5074462;28;20070;-81
2022/12/28 07:33:54;;;;;;;11.38;8.45;;;8.40;99.90;;;;;;5075381;28;20066;-80
2022/12/28 07:36:21;;;;;;;12.00;8.27;;;8.50;99.90;;;;;;5057304;28;20059;-81
2022/12/28 07:38:47;;;;;;;9.50;8.13;;;8.50;99.90;;;;;;5071791;28;20342;-80
2022/12/28 07:41:16;;;;;;;13.02;8.30;;;8.40;99.90;;;;;;5042711;28;20107;-80
2022/12/28 07:43:41;;;;;;;10.40;7.28;;;8.50;99.90;;;;;;5057784;28;20031;-80
2022/12/28 07:46:10;;;;;;;10.02;8.25;;;8.50;99.90;;;;;;5074665;28;20043;-82
2022/12/28 07:48:37;;;;;;;9.48;7.45;;;8.50;99.90;;;;;;5075832;28;20044;-82
2022/12/28 07:51:21;;;;;;;11.60;8.82;;;8.50;99.90;;;;;;5058677;28;20048;-82
2022/12/28 07:53:48;;;;;;;9.88;8.88;;;8.50;99.90;;;;;;5066478;28;20068;-81
2022/12/28 07:56:15;;;;;;;10.30;8.18;;;8.50;99.90;;;;;;5050380;28;20118;-83
2022/12/28 07:58:41;;;;;;;11.50;8.48;;;8.50;99.90;;;;;;5042553;28;20036;-82
2022/12/28 08:01:12;;;;;;;9.38;7.75;;;8.50;99.90;;;;;;5075956;28;20146;-82
2022/12/28 08:03:39;;;;;;;9.80;8.45;;;8.50;99.90;;;;;;5058838;28;20043;-82
2022/12/28 08:06:10;;;;;;;8.40;7.50;;;8.50;99.90;;;;;;5056194;28;20044;-83
2022/12/28 08:08:47;;;;;;;9.18;8.00;;;8.50;99.90;;;;;;5057915;28;20495;-83
2022/12/28 08:11:20;;;;;;;10.48;7.68;;;8.50;99.90;;;;;;5057378;28;20072;-83
2022/12/28 08:13:47;;;;;;;10.88;8.65;;;8.50;99.90;;;;;;5072910;28;20048;-83
2022/12/28 08:16:17;;;;;;;9.82;8.45;;;8.50;99.90;;;;;;5056546;28;20051;-82
2022/12/28 08:18:43;;;;;;;10.10;7.80;;;8.50;99.90;;;;;;5057826;28;20452;-83
2022/12/28 08:21:15;;;;;;;7.65;6.85;;;8.50;99.90;;;;;;5072931;28;20138;-83
2022/12/28 08:23:41;;;;;;;11.00;7.32;;;8.50;99.90;;;;;;5054365;28;20036;-82
2022/12/28 08:26:15;;;;;;;11.38;7.65;;;8.50;99.90;;;;;;5071257;28;20044;-83
2022/12/28 08:28:42;;;;;;;9.73;8.00;;;8.50;99.90;;;;;;5072580;28;20044;-84
2022/12/28 08:31:11;;;;;;;9.00;6.82;;;8.50;99.90;;;;;;5057691;28;20075;-85
2022/12/28 08:33:37;;;;;;;8.65;7.15;;;8.50;99.90;;;;;;5048880;28;20372;-84
2022/12/28 08:36:04;;;;;;;8.70;7.68;;;8.50;99.90;;;;;;5055260;28;20098;-83
2022/12/28 08:38:30;;;;;;;7.00;5.95;;;8.50;99.90;;;;;;5052943;28;20048;-84
2022/12/28 08:41:02;;;;;;;8.95;5.75;;;8.60;99.90;;;;;;5057586;28;20093;-83
2022/12/28 08:43:28;;;;;;;8.82;6.78;;;8.60;99.90;;;;;;5058395;28;20036;-84
2022/12/28 08:46:04;;;;;;;8.15;5.57;;;8.70;99.90;;;;;;5057598;28;20411;-83
2022/12/28 08:48:30;;;;;;;8.10;6.20;;;8.70;99.90;;;;;;5057855;28;20502;-83
2022/12/28 08:51:08;;;;;;;10.15;6.50;;;8.70;99.90;;;;;;5040128;28;20430;-83
2022/12/28 08:53:35;;;;;;;6.82;6.18;;;8.70;99.90;;;;;;5073624;28;20510;-83
2022/12/28 08:56:04;;;;;;;8.65;5.88;;;8.70;99.90;;;;;;5058326;28;20403;-83
2022/12/28 08:58:30;;;;;;;6.68;5.90;;;8.80;99.90;;;;;;5057302;28;20062;-83
2022/12/28 09:00:55;;;;;;;6.95;5.88;;;8.70;99.90;;;;;;5057374;28;20039;-82
2022/12/28 09:03:21;;;;;;;5.82;4.68;;;8.80;99.90;;;;;;5025024;28;20051;-83
2022/12/28 09:05:47;;;;;;;7.32;6.45;;;8.80;99.90;;;;;;5072928;28;20086;-85
2022/12/28 09:08:13;;;;;;;7.60;5.93;;;8.90;99.90;;;;;;5040822;28;20131;-84
2022/12/28 09:10:39;;;;;;;9.50;5.78;;;8.80;99.90;;;;;;5056736;28;20119;-84
2022/12/28 09:13:04;;;;;;;8.70;6.57;;;8.80;99.90;;;;;;5025977;28;20392;-83
2022/12/28 09:15:30;;;;;;;9.55;6.32;;;8.90;99.90;;;;;;5057584;28;20040;-83
2022/12/28 09:17:56;;;;;;;8.88;6.38;;;8.90;99.90;;;;;;5057173;28;20568;-83
2022/12/28 09:20:21;;;;;;;7.75;6.88;;;8.90;99.90;;;;;;5041827;28;20078;-84
2022/12/28 09:22:47;;;;;;;9.10;6.68;;;8.90;99.90;;;;;;5040230;28;20043;-82
2022/12/28 09:25:13;;;;;;;8.10;6.55;;;8.90;99.90;;;;;;5072378;28;20036;-82
2022/12/28 09:27:39;;;;;;;8.45;7.40;;;8.90;99.90;;;;;;5040180;28;20044;-82
2022/12/28 09:30:05;;;;;;;9.25;6.10;;;8.90;99.90;;;;;;5040138;28;20036;-83
2022/12/28 09:32:31;;;;;;;9.35;7.20;;;9.00;99.90;;;;;;5040028;28;20085;-80
2022/12/28 09:34:56;;;;;;;8.90;7.03;;;9.00;99.90;;;;;;5058929;28;20039;-82
2022/12/28 09:37:22;;;;;;;8.65;6.43;;;9.00;99.90;;;;;;5045615;28;20039;-82
2022/12/28 09:39:48;;;;;;;9.75;7.45;;;9.00;99.90;;;;;;5060526;28;20047;-81
2022/12/28 09:42:16;;;;;;;8.70;5.95;;;9.00;99.90;;;;;;5077935;28;20039;-81
2022/12/28 09:44:52;;;;;;;8.48;6.95;;;9.00;99.90;;;;;;5097505;28;20376;-80
2022/12/28 09:47:23;;;;;;;7.88;6.10;;;9.00;99.90;;;;;;5076455;28;20044;-79
2022/12/28 09:49:59;;;;;;;8.60;7.28;;;9.00;99.90;;;;;;5050757;28;20445;-79
2022/12/28 09:52:42;;;;;;;7.53;6.37;;;9.00;99.90;;;;;;5076437;28;20067;-82
2022/12/28 09:55:14;;;;;;;7.55;5.95;;;9.00;99.90;;;;;;5076994;28;20274;-79
2022/12/28 09:57:59;;;;;;;7.18;6.47;;;9.00;99.90;;;;;;5076546;28;20507;-80
2022/12/28 10:00:32;;;;;;;8.52;5.85;;;9.00;99.90;;;;;;5077756;28;20434;-80
2022/12/28 10:03:02;;;;;;;8.02;5.78;;;9.00;99.90;;;;;;5077230;28;20541;-80
2022/12/28 10:05:28;;;;;;;7.30;6.55;;;9.00;99.90;;;;;;5076570;28;20043;-81
2022/12/28 10:08:00;;;;;;;8.35;6.63;;;9.10;99.90;;;;;;5059575;28;20036;-80
2022/12/28 10:10:26;;;;;;;8.73;6.88;;;9.00;99.90;;;;;;5060391;28;20055;-81
2022/12/28 10:12:53;;;;;;;7.68;6.10;;;9.00;99.90;;;;;;5075671;28;20511;-80
2022/12/28 10:15:27;;;;;;;9.13;7.07;;;9.10;99.90;;;;;;5077035;28;20507;-80
2022/12/28 10:17:53;;;;;;;8.88;7.32;;;9.00;99.90;;;;;;5060050;28;20039;-80
2022/12/28 10:20:21;;;;;;;8.52;7.35;;;9.00;99.90;;;;;;5074966;28;20040;-81
2022/12/28 10:22:55;;;;;;;9.85;7.63;;;9.00;99.90;;;;;;5075603;28;20036;-82
2022/12/28 10:25:25;;;;;;;9.27;7.60;;;9.10;99.90;;;;;;5060438;28;20047;-81
2022/12/28 10:27:51;;;;;;;8.40;7.35;;;9.10;99.90;;;;;;5059977;28;20060;-81
2022/12/28 10:30:22;;;;;;;8.63;7.72;;;9.00;99.90;;;;;;5041311;28;20373;-81
2022/12/28 10:32:59;;;;;;;8.55;7.40;;;9.10;99.90;;;;;;5077384;28;20067;-82
2022/12/28 10:35:27;;;;;;;8.18;7.25;;;9.10;99.90;;;;;;5059505;28;20036;-81
2022/12/28 10:38:02;;;;;;;7.88;6.70;;;9.10;99.90;;;;;;5059231;28;20046;-80
2022/12/28 10:40:32;;;;;;;7.22;6.53;;;9.10;99.90;;;;;;5076844;28;20036;-80
2022/12/28 10:42:59;;;;;;;8.77;6.93;;;9.10;99.90;;;;;;5060040;28;20049;-80
2022/12/28 10:45:44;;;;;;;6.85;6.13;;;9.10;99.90;;;;;;5075775;28;20434;-80
2022/12/28 10:48:32;;;;;;;7.03;5.85;;;9.10;99.90;;;;;;5058929;28;20024;-81
2022/12/28 10:51:10;;;;;;;5.78;5.18;;;9.00;99.90;;;;;;5059431;28;20387;-80
2022/12/28 10:53:48;;;;;;;6.75;6.05;;;9.00;99.90;;;;;;5076160;28;20036;-79
2022/12/28 10:56:13;;;;;;;7.45;6.25;;;9.10;99.90;;;;;;5076346;28;20055;-81
2022/12/28 10:58:41;;;;;;;6.97;6.13;;;9.00;99.90;;;;;;5059668;28;20044;-79
2022/12/28 11:01:13;;;;;;;6.53;5.47;;;9.10;99.90;;;;;;5076253;28;20062;-80
2022/12/28 11:04:21;;;;;;;6.68;5.85;;;9.10;99.90;;;;;;5074363;28;20040;-77
2022/12/28 11:06:52;;;;;;;6.57;5.85;;;9.00;99.90;;;;;;5064670;28;20560;-81
2022/12/28 11:09:26;;;;;;;7.13;5.60;;;9.00;99.90;;;;;;5059177;28;20048;-80
2022/12/28 11:11:55;;;;;;;6.18;5.53;;;9.00;99.90;;;;;;5075362;28;20068;-80
2022/12/28 11:14:34;;;;;;;6.00;5.30;;;9.00;99.90;;;;;;5074654;28;20040;-81
2022/12/28 11:17:20;;;;;;;6.22;4.82;;;9.10;99.90;;;;;;5074930;28;20059;-80
2022/12/28 11:19:49;;;;;;;6.00;5.45;;;9.10;99.90;;;;;;5075877;28;20158;-81
2022/12/28 11:22:22;;;;;;;5.85;5.22;;;9.10;99.90;;;;;;5058127;28;20044;-83
2022/12/28 11:24:48;;;;;;;6.43;5.38;;;9.10;99.90;;;;;;5063595;28;20043;-81
2022/12/28 11:27:17;;;;;;;6.05;5.25;;;9.10;99.90;;;;;;5057169;28;20043;-83
2022/12/28 11:29:49;;;;;;;5.85;5.00;;;9.10;99.90;;;;;;5057565;28;20515;-82
2022/12/28 11:32:26;;;;;;;5.55;4.97;;;9.10;99.90;;;;;;5059659;28;20066;-82
2022/12/28 11:34:54;;;;;;;5.10;4.55;;;9.10;99.90;;;;;;5075181;28;20062;-80
2022/12/28 11:37:20;;;;;;;5.35;4.85;;;9.20;99.90;;;;;;5058381;28;20036;-81
2022/12/28 11:39:47;;;;;;;7.35;5.63;;;9.20;99.90;;;;;;5075723;28;20044;-81
2022/12/28 11:42:53;;;;;;;6.95;5.57;;;9.10;99.90;;;;;;5073546;28;20048;-80
2022/12/28 11:45:58;;;;;;;5.85;4.78;;;9.10;99.90;;;;;;5059992;28;20135;-81
2022/12/28 11:48:40;;;;;;;6.65;5.10;;;9.10;99.90;;;;;;5059734;28;20132;-81
2022/12/28 11:51:15;;;;;;;6.45;5.50;;;9.10;99.90;;;;;;5057778;28;20174;-82
2022/12/28 11:53:44;;;;;;;8.13;5.53;;;9.10;99.90;;;;;;5071820;28;20594;-82
2022/12/28 11:56:11;;;;;;;6.35;5.20;;;9.10;99.90;;;;;;5057274;28;20100;-83
2022/12/28 11:58:41;;;;;;;6.60;5.65;;;9.10;99.90;;;;;;5056598;28;20054;-84
2022/12/28 12:01:32;;;;;;;7.32;5.88;;;9.00;99.90;;;;;;5057865;28;20032;-84
2022/12/28 12:04:00;;;;;;;5.55;5.03;;;9.10;99.90;;;;;;5028113;28;20052;-83
2022/12/28 12:06:41;;;;;;;6.43;4.90;;;9.10;99.90;;;;;;5056894;28;20135;-83
2022/12/28 12:09:37;;;;;;;6.15;5.00;;;9.10;99.90;;;;;;5052568;28;20291;-84
2022/12/28 12:12:22;;;;;;;7.03;5.25;;;9.10;99.90;;;;;;5072381;28;20051;-83
2022/12/28 12:14:56;;;;;;;9.83;5.60;;;9.10;99.90;;;;;;5059152;28;20069;-85
2022/12/28 12:17:27;;;;;;;4.15;3.75;;;9.10;99.90;;;;;;5058560;28;20290;-82
2022/12/28 12:19:56;;;;;;;6.22;4.00;;;9.10;99.90;;;;;;5057280;28;20123;-83
2022/12/28 12:22:33;;;;;;;5.13;4.35;;;9.10;99.90;;;;;;5071251;28;20044;-83
2022/12/28 12:25:23;;;;;;;4.20;3.80;;;9.10;99.90;;;;;;5054860;28;20101;-83
2022/12/28 12:28:15;;;;;;;4.40;3.70;;;9.10;99.90;;;;;;5054385;28;20097;-84
2022/12/28 12:30:42;;;;;;;4.78;3.83;;;9.10;99.90;;;;;;5067707;28;20468;-84
2022/12/28 12:33:23;;;;;;;5.82;4.00;;;9.10;99.90;;;;;;5054377;28;20094;-82
2022/12/28 12:36:21;;;;;;;5.45;3.65;;;9.10;99.90;;;;;;5070566;28;20036;-76
2022/12/28 12:39:05;;;;;;;4.10;3.42;;;9.10;99.90;;;;;;5068727;28;20048;-76
2022/12/28 12:41:41;;;;;;;4.55;3.78;;;9.10;99.90;;;;;;5067526;28;20048;-75
2022/12/28 12:44:25;;;;;;;7.63;3.80;;;9.10;99.90;;;;;;5067354;28;20040;-75
2022/12/28 12:47:03;;;;;;;5.07;3.50;;;9.10;99.90;;;;;;5066885;28;20049;-75
2022/12/28 12:49:37;;;;;;;5.13;3.67;;;9.20;99.90;;;;;;5068818;28;20056;-75
2022/12/28 12:52:41;;;;;;;4.18;3.28;;;9.20;99.90;;;;;;5068855;28;20396;-75
2022/12/28 12:55:19;;;;;;;5.93;3.58;;;9.10;99.90;;;;;;5068894;28;20048;-76
2022/12/28 12:57:52;;;;;;;5.35;3.05;;;9.10;99.90;;;;;;5067638;28;20044;-75
2022/12/28 13:00:21;;;;;;;2.88;2.63;;;9.20;99.90;;;;;;5067405;28;20032;-75
2022/12/28 13:03:04;;;;;;;3.00;2.67;;;9.10;99.90;;;;;;5051611;28;20492;-76
2022/12/28 13:05:30;;;;;;;3.08;2.30;;;9.10;99.90;;;;;;5067668;28;20067;-76
2022/12/28 13:07:57;;;;;;;2.55;2.17;;;9.20;99.90;;;;;;5067329;28;20133;-76
2022/12/28 13:10:40;;;;;;;4.20;2.60;;;9.20;99.90;;;;;;5068966;28;20041;-76
2022/12/28 13:13:06;;;;;;;3.38;2.33;;;9.20;99.90;;;;;;5068573;28;20040;-76
2022/12/28 13:15:31;;;;;;;2.60;2.40;;;9.20;99.90;;;;;;5068815;28;20055;-76
2022/12/28 13:18:13;;;;;;;3.40;2.65;;;9.20;99.90;;;;;;5068431;28;20497;-76
2022/12/28 13:20:39;;;;;;;3.58;2.45;;;9.20;99.90;;;;;;5067631;28;20041;-76
2022/12/28 13:23:13;;;;;;;3.15;2.53;;;9.20;99.90;;;;;;5068906;28;20043;-76
2022/12/28 13:25:46;;;;;;;3.17;2.88;;;9.20;99.90;;;;;;5068955;28;20045;-80
2022/12/28 13:28:22;;;;;;;3.47;2.50;;;9.10;99.90;;;;;;5068276;28;20043;-80
2022/12/28 13:31:29;;;;;;;3.28;2.67;;;9.20;99.90;;;;;;5068452;28;20049;-80
2022/12/28 13:34:15;;;;;;;3.83;2.80;;;9.10;99.90;;;;;;5051328;28;20045;-81
2022/12/28 13:37:13;;;;;;;3.70;2.60;;;9.10;99.90;;;;;;5069848;28;20393;-81
2022/12/28 13:39:39;;;;;;;3.08;2.35;;;9.10;99.90;;;;;;5025168;28;20306;-81
2022/12/28 13:42:15;;;;;;;3.38;2.38;;;9.10;99.90;;;;;;5035877;28;20408;-81
2022/12/28 13:44:47;;;;;;;;;;;9.10;99.90;;;;;;5071527;28;20037;-81